Time;durP1;ratioP1;P1;durP2;ratioP2;P2;SDS_P1;SDS_P2;PMS_P1;PMS_P2;Temp;Humidity;BMP_temperature;BMP_pressure;BME280_temperature;BME280_humidity;BME280_pressure;Samples;Min_cycle;Max_cycle;Signal;HPM_P1;HPM_P2
2023/10/05 00:01:02;;;;;;;18.85;12.30;;;;;;;12.16;100.00;102199.53;5059788;28;20032;-62
2023/10/05 00:03:29;;;;;;;20.70;12.10;;;;;;;12.16;100.00;102197.56;5050945;28;20060;-63
2023/10/05 00:06:03;;;;;;;19.08;12.20;;;;;;;12.15;100.00;102195.91;5072252;28;20263;-62
2023/10/05 00:08:28;;;;;;;21.67;12.55;;;;;;;12.13;100.00;102192.59;5065469;28;20125;-62
2023/10/05 00:10:54;;;;;;;20.08;12.52;;;;;;;12.14;100.00;102196.19;5059186;28;20053;-62
2023/10/05 00:13:19;;;;;;;19.00;13.02;;;;;;;12.13;100.00;102194.53;5058575;28;20029;-62
2023/10/05 00:15:45;;;;;;;21.52;12.55;;;;;;;12.12;100.00;102210.34;5062242;28;20029;-62
2023/10/05 00:18:14;;;;;;;20.50;13.30;;;;;;;12.13;100.00;102208.41;5056652;28;20467;-62
2023/10/05 00:20:41;;;;;;;21.83;13.05;;;;;;;12.12;100.00;102213.13;5055210;28;20087;-62
2023/10/05 00:23:11;;;;;;;20.33;13.20;;;;;;;12.13;100.00;102222.28;5069350;28;20432;-62
2023/10/05 00:25:39;;;;;;;19.13;12.38;;;;;;;12.12;100.00;102217.84;5065493;28;20032;-63
2023/10/05 00:28:09;;;;;;;19.75;12.20;;;;;;;12.11;100.00;102219.78;5072756;28;20021;-62
2023/10/05 00:30:35;;;;;;;19.92;12.50;;;;;;;12.09;100.00;102221.19;5071426;28;20029;-62
2023/10/05 00:33:00;;;;;;;21.67;12.95;;;;;;;12.10;100.00;102220.06;5055210;28;20485;-62
2023/10/05 00:35:28;;;;;;;20.65;12.73;;;;;;;12.09;100.00;102224.78;5061994;28;20031;-62
2023/10/05 00:37:57;;;;;;;20.88;12.70;;;;;;;12.11;100.00;102224.50;5072983;28;20016;-62
2023/10/05 00:40:36;;;;;;;21.23;13.32;;;;;;;12.08;100.00;102225.06;5072553;28;20098;-62
2023/10/05 00:43:19;;;;;;;20.15;12.32;;;;;;;12.10;100.00;102228.38;5054200;28;20049;-62
2023/10/05 00:45:47;;;;;;;19.65;12.15;;;;;;;12.09;100.00;102223.97;5071058;28;20484;-62
2023/10/05 00:48:26;;;;;;;19.77;12.68;;;;;;;12.08;100.00;102225.88;5053405;28;20056;-63
2023/10/05 00:50:54;;;;;;;21.20;12.85;;;;;;;12.08;100.00;102225.88;5066721;28;20090;-62
2023/10/05 00:53:21;;;;;;;21.55;13.65;;;;;;;12.05;100.00;102228.41;5071197;28;20036;-62
2023/10/05 00:55:57;;;;;;;21.17;13.48;;;;;;;12.03;100.00;102228.69;5072809;28;20116;-62
2023/10/05 00:58:34;;;;;;;19.80;12.40;;;;;;;12.01;100.00;102231.72;5062508;28;20029;-62
2023/10/05 01:01:05;;;;;;;23.05;12.63;;;;;;;12.01;100.00;102233.69;5061346;28;20541;-62
2023/10/05 01:03:33;;;;;;;20.00;12.30;;;;;;;12.01;100.00;102239.22;5061436;28;20426;-62
2023/10/05 01:06:25;;;;;;;19.38;11.77;;;;;;;11.99;100.00;102233.13;5071641;28;20029;-62
2023/10/05 01:08:59;;;;;;;20.40;12.65;;;;;;;11.99;100.00;102233.97;5070585;28;20028;-62
2023/10/05 01:11:38;;;;;;;21.77;12.68;;;;;;;11.99;100.00;102235.91;5065885;28;20452;-62
2023/10/05 01:14:03;;;;;;;21.25;12.45;;;;;;;11.98;100.00;102231.47;5069363;28;20119;-62
2023/10/05 01:16:32;;;;;;;22.17;13.60;;;;;;;11.98;100.00;102223.16;5070318;28;20025;-62
2023/10/05 01:18:58;;;;;;;20.25;13.30;;;;;;;11.96;100.00;102231.72;5071741;28;20029;-62
2023/10/05 01:21:25;;;;;;;21.35;12.40;;;;;;;11.95;100.00;102230.06;5049727;28;20086;-61
2023/10/05 01:23:51;;;;;;;21.60;12.90;;;;;;;11.96;100.00;102226.19;5051722;28;20037;-62
2023/10/05 01:26:16;;;;;;;18.95;12.13;;;;;;;11.95;100.00;102226.47;5060985;28;20397;-61
2023/10/05 01:28:41;;;;;;;22.20;12.52;;;;;;;11.93;100.00;102220.38;5053721;28;20067;-62
2023/10/05 01:31:29;;;;;;;20.70;12.45;;;;;;;11.92;100.00;102221.47;5052617;28;20365;-62
2023/10/05 01:33:54;;;;;;;21.33;13.38;;;;;;;11.91;100.00;102222.59;5051719;28;20028;-62
2023/10/05 01:36:22;;;;;;;21.58;12.82;;;;;;;11.93;100.00;102223.16;5055977;28;20037;-62
2023/10/05 01:38:48;;;;;;;19.52;12.40;;;;;;;11.92;100.00;102224.25;5071651;28;20039;-62
2023/10/05 01:41:20;;;;;;;20.48;12.90;;;;;;;11.90;100.00;102219.00;5062319;28;20036;-62
2023/10/05 01:43:46;;;;;;;20.13;13.40;;;;;;;11.91;100.00;102215.09;5054963;28;20037;-61
2023/10/05 01:46:12;;;;;;;19.73;13.00;;;;;;;11.91;100.00;102215.09;5051305;28;20032;-62
2023/10/05 01:48:38;;;;;;;18.33;12.07;;;;;;;11.90;100.00;102213.44;5056641;28;20052;-62
2023/10/05 01:51:47;;;;;;;20.13;13.00;;;;;;;11.86;100.00;102213.16;5064884;28;20024;-62
2023/10/05 01:53:56;;;;;;;19.48;12.20;;;;;;;11.87;100.00;102202.91;5048091;28;20044;-62
2023/10/05 01:56:22;;;;;;;22.88;13.00;;;;;;;11.85;100.00;102203.19;5051142;28;20025;-62
2023/10/05 01:58:52;;;;;;;23.02;13.05;;;;;;;11.86;100.00;102206.78;5056239;28;20036;-62
2023/10/05 02:01:21;;;;;;;20.83;12.90;;;;;;;11.84;100.00;102198.78;5051321;28;20033;-62
2023/10/05 02:03:55;;;;;;;20.90;12.60;;;;;;;11.86;100.00;102201.25;5063130;28;20119;-62
2023/10/05 02:06:21;;;;;;;21.67;13.98;;;;;;;11.83;100.00;102207.34;5059893;28;20071;-62
2023/10/05 02:08:46;;;;;;;20.90;13.45;;;;;;;11.83;100.00;102204.56;5055324;28;20052;-62
2023/10/05 02:11:23;;;;;;;20.92;13.35;;;;;;;11.81;100.00;102202.09;5063173;28;20028;-62
2023/10/05 02:13:49;;;;;;;20.27;13.00;;;;;;;11.78;100.00;102201.84;5070011;28;20044;-61
2023/10/05 02:16:20;;;;;;;21.75;13.27;;;;;;;11.77;100.00;102205.72;5064226;28;20021;-62
2023/10/05 02:18:46;;;;;;;21.23;12.77;;;;;;;11.74;100.00;102206.25;5051055;28;20361;-62
2023/10/05 02:21:18;;;;;;;23.95;13.50;;;;;;;11.68;100.00;102195.19;5062480;28;20119;-61
2023/10/05 02:23:44;;;;;;;22.40;13.60;;;;;;;11.69;100.00;102198.78;5050658;28;20031;-61
2023/10/05 02:26:33;;;;;;;21.65;13.00;;;;;;;11.65;100.00;102194.94;5062378;28;20119;-62
2023/10/05 02:28:59;;;;;;;20.45;13.73;;;;;;;11.65;100.00;102204.06;5067540;28;20080;-62
2023/10/05 02:31:28;;;;;;;21.60;13.27;;;;;;;11.62;100.00;102199.06;5064756;28;20030;-62
2023/10/05 02:33:55;;;;;;;18.95;13.32;;;;;;;11.61;100.00;102197.44;5050789;28;20041;-62
2023/10/05 02:36:21;;;;;;;21.92;13.27;;;;;;;11.58;100.00;102194.38;5065264;28;20024;-62
2023/10/05 02:38:49;;;;;;;20.80;12.95;;;;;;;11.53;100.00;102193.28;5055531;28;20495;-62
2023/10/05 02:41:17;;;;;;;20.48;12.55;;;;;;;11.50;100.00;102184.69;5061018;28;20079;-62
2023/10/05 02:43:51;;;;;;;22.13;13.02;;;;;;;11.49;100.00;102192.16;5055679;28;20029;-62
2023/10/05 02:46:17;;;;;;;21.95;13.50;;;;;;;11.47;100.00;102188.88;5050625;28;20119;-62
2023/10/05 02:48:43;;;;;;;20.35;13.68;;;;;;;11.43;100.00;102190.53;5062232;28;20021;-62
2023/10/05 02:51:11;;;;;;;20.58;13.52;;;;;;;11.41;100.00;102181.66;5057541;28;20029;-62
2023/10/05 02:53:56;;;;;;;21.73;13.07;;;;;;;11.42;100.00;102177.78;5068987;28;20028;-62
2023/10/05 02:56:29;;;;;;;23.17;14.07;;;;;;;11.44;100.00;102183.03;5050510;28;20049;-62
2023/10/05 02:58:56;;;;;;;21.63;13.00;;;;;;;11.41;100.00;102189.97;5054991;28;20075;-61
2023/10/05 03:01:23;;;;;;;23.90;13.60;;;;;;;11.39;100.00;102175.56;5069223;28;20742;-62
2023/10/05 03:03:48;;;;;;;21.33;13.65;;;;;;;11.39;100.00;102178.31;5053533;28;20029;-61
2023/10/05 03:06:15;;;;;;;23.27;13.88;;;;;;;11.38;100.00;102185.00;5068105;28;20598;-62
2023/10/05 03:08:41;;;;;;;21.85;13.25;;;;;;;11.41;100.00;102180.84;5052483;28;20040;-61
2023/10/05 03:11:09;;;;;;;21.60;13.30;;;;;;;11.38;100.00;102183.06;5061289;28;20033;-61
2023/10/05 03:13:41;;;;;;;23.05;13.43;;;;;;;11.36;100.00;102181.69;5064906;28;20033;-62
2023/10/05 03:16:10;;;;;;;20.58;13.10;;;;;;;11.37;100.00;102186.09;5055096;28;20033;-61
2023/10/05 03:18:40;;;;;;;21.15;12.98;;;;;;;11.32;100.00;102169.47;5050042;28;20146;-61
2023/10/05 03:21:13;;;;;;;23.70;13.57;;;;;;;11.34;100.00;102181.13;5060711;28;20396;-62
2023/10/05 03:23:41;;;;;;;21.20;13.13;;;;;;;11.32;100.00;102184.19;5065382;28;20451;-62
2023/10/05 03:26:07;;;;;;;20.77;12.82;;;;;;;11.29;100.00;102176.41;5071517;28;20021;-62
2023/10/05 03:28:35;;;;;;;21.50;12.90;;;;;;;11.26;100.00;102173.38;5064024;28;20025;-61
2023/10/05 03:31:07;;;;;;;19.60;13.40;;;;;;;11.29;100.00;102181.13;5063054;28;20017;-61
2023/10/05 03:33:34;;;;;;;20.55;13.10;;;;;;;11.27;100.00;102172.25;5064272;28;20032;-61
2023/10/05 03:36:06;;;;;;;22.25;14.18;;;;;;;11.29;100.00;102170.06;5071263;28;20017;-61
2023/10/05 03:38:32;;;;;;;21.13;14.00;;;;;;;11.30;100.00;102169.75;5062328;28;20035;-64
2023/10/05 03:41:01;;;;;;;22.17;13.80;;;;;;;11.28;100.00;102166.44;5056934;28;20036;-61
2023/10/05 03:43:27;;;;;;;20.30;13.82;;;;;;;11.28;100.00;102166.44;5058764;28;20512;-61
2023/10/05 03:45:52;;;;;;;19.80;13.15;;;;;;;11.27;100.00;102169.50;5062251;28;20036;-61
2023/10/05 03:48:18;;;;;;;21.45;13.13;;;;;;;11.24;100.00;102166.16;5058786;28;20071;-61
2023/10/05 03:50:43;;;;;;;21.52;14.18;;;;;;;11.22;100.00;102159.25;5065659;28;20050;-61
2023/10/05 03:53:15;;;;;;;22.70;14.18;;;;;;;11.17;100.00;102167.53;5073437;28;20098;-62
2023/10/05 03:55:41;;;;;;;23.27;13.93;;;;;;;11.16;100.00;102171.41;5061560;28;20116;-61
2023/10/05 03:58:07;;;;;;;21.92;13.80;;;;;;;11.17;100.00;102184.16;5069819;28;20111;-61
2023/10/05 04:00:35;;;;;;;20.38;13.80;;;;;;;11.17;100.00;102178.63;5070435;28;20533;-61
2023/10/05 04:03:02;;;;;;;20.00;14.15;;;;;;;11.14;100.00;102185.56;5053536;28;20051;-61
2023/10/05 04:05:27;;;;;;;21.75;13.93;;;;;;;11.12;100.00;102185.00;5064659;28;20024;-61
2023/10/05 04:07:55;;;;;;;25.02;14.63;;;;;;;11.13;100.00;102188.63;5065463;28;20039;-62
2023/10/05 04:10:23;;;;;;;22.75;14.70;;;;;;;11.13;100.00;102181.13;5053326;28;20028;-61
2023/10/05 04:12:51;;;;;;;19.65;13.70;;;;;;;11.14;100.00;102179.19;5062470;28;20031;-61
2023/10/05 04:15:18;;;;;;;23.02;14.60;;;;;;;11.15;100.00;102172.53;5069207;28;20029;-61
2023/10/05 04:17:50;;;;;;;20.55;13.75;;;;;;;11.17;100.00;102173.94;5062805;28;20083;-61
2023/10/05 04:20:28;;;;;;;21.17;13.65;;;;;;;11.20;100.00;102181.66;5053150;28;20055;-61
2023/10/05 04:22:57;;;;;;;20.38;13.48;;;;;;;11.27;100.00;102183.34;5071336;28;20028;-61
2023/10/05 04:25:22;;;;;;;23.00;13.85;;;;;;;11.28;100.00;102183.06;5065286;28;20024;-61
2023/10/05 04:27:54;;;;;;;21.85;14.30;;;;;;;11.32;100.00;102180.56;5055191;28;20040;-62
2023/10/05 04:30:21;;;;;;;24.20;14.30;;;;;;;11.34;100.00;102184.69;5067791;28;20025;-62
2023/10/05 04:32:47;;;;;;;23.02;13.60;;;;;;;11.34;100.00;102184.69;5061714;28;20147;-62
2023/10/05 04:35:28;;;;;;;22.15;13.80;;;;;;;11.37;100.00;102186.09;5066791;28;20036;-62
2023/10/05 04:37:54;;;;;;;23.10;13.93;;;;;;;11.36;100.00;102188.03;5053701;28;20382;-62
2023/10/05 04:40:24;;;;;;;20.98;13.45;;;;;;;11.37;100.00;102189.69;5072360;28;20031;-62
2023/10/05 04:42:56;;;;;;;20.88;13.52;;;;;;;11.33;100.00;102182.22;5067165;28;20045;-62
2023/10/05 04:45:23;;;;;;;20.48;13.77;;;;;;;11.32;100.00;102175.00;5065466;28;20071;-62
2023/10/05 04:47:49;;;;;;;22.48;14.35;;;;;;;11.26;100.00;102184.44;5057240;28;20056;-61
2023/10/05 04:50:15;;;;;;;24.20;14.55;;;;;;;11.22;100.00;102181.41;5071650;28;20031;-62
2023/10/05 04:52:41;;;;;;;21.65;13.82;;;;;;;11.18;100.00;102186.69;5061491;28;20070;-62
2023/10/05 04:55:30;;;;;;;21.88;14.30;;;;;;;11.13;100.00;102183.91;5071689;28;20032;-62
2023/10/05 04:58:14;;;;;;;23.50;14.63;;;;;;;11.07;100.00;102180.28;5056519;28;20103;-62
2023/10/05 05:06:10;;;;;;;22.77;14.43;;;;;;;10.98;100.00;102183.91;5064776;28;20130;-62
2023/10/05 05:08:40;;;;;;;22.58;14.35;;;;;;;10.95;100.00;102181.66;5056812;28;20032;-62
2023/10/05 05:11:18;;;;;;;21.45;13.77;;;;;;;10.90;100.00;102183.34;5060953;28;20032;-62
2023/10/05 05:13:48;;;;;;;21.80;13.88;;;;;;;10.90;100.00;102177.81;5057639;28;20566;-62
2023/10/05 05:16:16;;;;;;;20.90;13.88;;;;;;;10.87;100.00;102183.88;5052291;28;20032;-62
2023/10/05 05:18:42;;;;;;;22.25;13.88;;;;;;;10.85;100.00;102194.41;5070854;28;20055;-62
2023/10/05 05:21:08;;;;;;;22.55;14.40;;;;;;;10.85;100.00;102188.03;5070214;28;20025;-62
2023/10/05 05:23:36;;;;;;;24.08;14.77;;;;;;;10.79;100.00;102189.97;5060963;28;20029;-62
2023/10/05 05:26:03;;;;;;;22.05;14.02;;;;;;;10.80;100.00;102185.25;5065305;28;20412;-62
2023/10/05 05:28:29;;;;;;;22.40;14.90;;;;;;;10.80;100.00;102188.88;5055151;28;20025;-62
2023/10/05 05:30:55;;;;;;;22.75;14.73;;;;;;;10.76;100.00;102188.59;5065687;28;20480;-62
2023/10/05 05:33:20;;;;;;;20.77;14.00;;;;;;;10.78;100.00;102196.63;5052750;28;20037;-62
2023/10/05 05:35:46;;;;;;;20.52;13.68;;;;;;;10.76;100.00;102190.50;5050293;28;20032;-62
2023/10/05 05:38:11;;;;;;;21.17;14.25;;;;;;;10.75;100.00;102194.38;5062234;28;20365;-62
2023/10/05 05:40:40;;;;;;;22.58;14.73;;;;;;;10.76;100.00;102196.91;5051242;28;20039;-62
2023/10/05 05:43:09;;;;;;;21.77;15.05;;;;;;;10.80;100.00;102201.88;5063578;28;20102;-62
2023/10/05 05:45:35;;;;;;;24.75;14.50;;;;;;;10.83;100.00;102212.41;5052929;28;20119;-62
2023/10/05 05:48:00;;;;;;;23.45;15.30;;;;;;;10.83;100.00;102204.91;5069515;28;20123;-62
2023/10/05 05:50:29;;;;;;;22.75;14.75;;;;;;;10.87;100.00;102211.56;5067514;28;20024;-63
2023/10/05 05:52:56;;;;;;;21.98;14.90;;;;;;;10.87;100.00;102225.41;5053521;28;20072;-64
2023/10/05 05:55:22;;;;;;;23.75;15.00;;;;;;;10.97;100.00;102221.81;5065720;28;20032;-64
2023/10/05 05:57:51;;;;;;;22.05;14.60;;;;;;;11.03;100.00;102223.50;5048718;28;20545;-64
2023/10/05 06:00:18;;;;;;;21.42;15.00;;;;;;;11.11;100.00;102216.56;5069185;28;20428;-64
2023/10/05 06:02:44;;;;;;;21.17;13.98;;;;;;;11.12;100.00;102218.22;5054608;28;20502;-65
2023/10/05 06:05:13;;;;;;;21.48;13.52;;;;;;;11.17;100.00;102214.63;5066163;28;20039;-65
2023/10/05 06:07:40;;;;;;;24.00;14.02;;;;;;;11.21;100.00;102216.56;5050857;28;20071;-64
2023/10/05 06:10:14;;;;;;;22.08;13.40;;;;;;;11.27;100.00;102217.41;5054346;28;20099;-64
2023/10/05 06:12:43;;;;;;;22.40;13.05;;;;;;;11.29;100.00;102219.91;5062275;28;20028;-63
2023/10/05 06:15:15;;;;;;;21.08;13.23;;;;;;;11.34;100.00;102219.91;5056007;28;20035;-62
2023/10/05 06:17:41;;;;;;;20.33;12.73;;;;;;;11.35;100.00;102227.94;5048470;28;20064;-62
2023/10/05 06:20:14;;;;;;;19.52;12.82;;;;;;;11.39;100.00;102223.50;5056740;28;20044;-63
2023/10/05 06:22:44;;;;;;;22.75;13.40;;;;;;;11.44;100.00;102230.13;5068143;28;20025;-63
2023/10/05 06:25:15;;;;;;;20.83;12.50;;;;;;;11.46;100.00;102230.69;5049954;28;20040;-63
2023/10/05 06:27:40;;;;;;;21.83;13.00;;;;;;;11.48;100.00;102226.53;5064169;28;20480;-63
2023/10/05 06:30:10;;;;;;;21.75;12.90;;;;;;;11.50;100.00;102238.19;5059766;28;20028;-62
2023/10/05 06:32:36;;;;;;;20.33;12.80;;;;;;;11.52;100.00;102243.47;5065899;28;20039;-62
2023/10/05 06:35:03;;;;;;;21.42;12.40;;;;;;;11.57;100.00;102237.09;5066637;28;20040;-63
2023/10/05 06:37:29;;;;;;;22.75;12.93;;;;;;;11.57;100.00;102240.66;5061528;28;20056;-62
2023/10/05 06:39:54;;;;;;;22.00;13.05;;;;;;;11.59;100.00;102232.91;5061841;28;20036;-61
2023/10/05 06:42:20;;;;;;;22.27;12.68;;;;;;;11.61;100.00;102235.41;5061025;28;20246;-63
2023/10/05 06:44:46;;;;;;;21.85;12.73;;;;;;;11.63;100.00;102238.72;5060362;28;20478;-62
2023/10/05 06:47:35;;;;;;;23.65;13.50;;;;;;;11.65;100.00;102242.06;5054959;28;20416;-62
2023/10/05 06:49:59;;;;;;;21.95;13.05;;;;;;;11.69;100.00;102251.47;5058794;28;20491;-63
2023/10/05 06:52:24;;;;;;;22.17;13.45;;;;;;;11.68;100.00;102250.63;5057558;28;20032;-63
2023/10/05 06:54:50;;;;;;;22.60;13.55;;;;;;;11.65;100.00;102253.97;5060539;28;20070;-63
2023/10/05 06:57:16;;;;;;;21.20;12.88;;;;;;;11.67;100.00;102265.59;5058829;28;20048;-63
2023/10/05 06:59:42;;;;;;;23.75;13.98;;;;;;;11.70;100.00;102258.66;5067188;28;20105;-63
2023/10/05 07:02:07;;;;;;;23.63;14.13;;;;;;;11.72;100.00;102264.78;5065949;28;20040;-62
2023/10/05 07:04:33;;;;;;;22.88;14.05;;;;;;;11.76;100.00;102276.13;5062208;28;20037;-61
2023/10/05 07:06:58;;;;;;;22.50;13.95;;;;;;;11.79;100.00;102275.59;5052142;28;20028;-62
2023/10/05 07:09:26;;;;;;;22.02;13.73;;;;;;;11.83;100.00;102274.75;5065364;28;20111;-61
2023/10/05 07:11:52;;;;;;;23.25;13.73;;;;;;;11.86;100.00;102268.63;5055414;28;20380;-62
2023/10/05 07:14:18;;;;;;;24.60;13.15;;;;;;;11.91;100.00;102267.78;5073645;28;20029;-62
2023/10/05 07:16:43;;;;;;;23.27;13.07;;;;;;;11.96;100.00;102275.25;5073768;28;20025;-62
2023/10/05 07:19:09;;;;;;;23.23;13.75;;;;;;;12.03;100.00;102292.50;5073300;28;20031;-62
2023/10/05 07:21:34;;;;;;;21.58;13.50;;;;;;;12.09;100.00;102285.00;5073500;28;20356;-61
2023/10/05 07:23:59;;;;;;;23.98;13.43;;;;;;;12.17;100.00;102293.56;5073085;28;20021;-62
2023/10/05 07:26:25;;;;;;;21.75;13.50;;;;;;;12.21;100.00;102291.03;5054873;28;20091;-62
2023/10/05 07:28:51;;;;;;;21.98;13.50;;;;;;;12.26;100.00;102287.41;5072870;28;20032;-62
2023/10/05 07:31:16;;;;;;;21.70;13.50;;;;;;;12.31;100.00;102287.41;5072831;28;20082;-62
2023/10/05 07:33:42;;;;;;;22.15;13.50;;;;;;;12.40;100.00;102290.41;5072178;28;20093;-63
2023/10/05 07:36:08;;;;;;;25.15;13.77;;;;;;;12.43;100.00;102299.00;5054488;28;20060;-62
2023/10/05 07:38:34;;;;;;;23.40;13.65;;;;;;;12.50;100.00;102298.72;5072772;28;20082;-62
2023/10/05 07:41:03;;;;;;;21.58;13.13;;;;;;;12.56;100.00;102300.38;5072682;28;20032;-62
2023/10/05 07:43:29;;;;;;;22.83;13.45;;;;;;;12.67;100.00;102316.97;5072940;28;20033;-62
2023/10/05 07:45:54;;;;;;;21.75;13.20;;;;;;;12.75;100.00;102308.88;5072655;28;20028;-63
2023/10/05 07:48:19;;;;;;;21.60;13.13;;;;;;;12.82;100.00;102311.34;5072714;28;20332;-63
2023/10/05 07:50:48;;;;;;;21.55;13.13;;;;;;;12.92;100.00;102316.84;5072892;28;20535;-62
2023/10/05 07:53:14;;;;;;;20.75;13.10;;;;;;;13.03;100.00;102319.56;5072744;28;20029;-62
2023/10/05 07:55:39;;;;;;;20.05;13.02;;;;;;;13.14;100.00;102321.16;5072717;28;20043;-62
2023/10/05 07:58:05;;;;;;;21.42;13.10;;;;;;;13.20;100.00;102324.72;5072555;28;20063;-63
2023/10/05 08:00:32;;;;;;;24.70;13.32;;;;;;;13.27;100.00;102323.31;5071365;28;20381;-62
2023/10/05 08:02:58;;;;;;;25.15;13.18;;;;;;;13.35;100.00;102330.19;5058613;28;20033;-62
2023/10/05 08:05:23;;;;;;;25.08;12.80;;;;;;;13.42;100.00;102329.88;5054362;28;20032;-62
2023/10/05 08:07:49;;;;;;;22.80;12.65;;;;;;;13.46;100.00;102333.75;5038889;28;20063;-62
2023/10/05 08:10:18;;;;;;;21.98;12.93;;;;;;;13.53;100.00;102325.09;5059914;28;20029;-62
2023/10/05 08:12:44;;;;;;;21.17;13.02;;;;;;;13.62;100.00;102336.41;5054934;28;20084;-64
2023/10/05 08:15:12;;;;;;;20.30;12.75;;;;;;;13.66;100.00;102335.53;5050296;28;20025;-63
2023/10/05 08:17:39;;;;;;;21.17;12.23;;;;;;;13.75;100.00;102334.91;5062998;28;20157;-63
2023/10/05 08:20:06;;;;;;;23.13;12.85;;;;;;;13.76;100.00;102336.56;5066455;28;20031;-62
2023/10/05 08:22:32;;;;;;;23.58;13.18;;;;;;;13.81;100.00;102337.34;5063077;28;20100;-64
2023/10/05 08:25:00;;;;;;;21.77;12.65;;;;;;;13.89;100.00;102339.50;5063437;28;20809;-62
2023/10/05 08:27:26;;;;;;;23.45;13.00;;;;;;;13.99;100.00;102343.31;5048229;28;20025;-63
2023/10/05 08:29:51;;;;;;;21.15;12.77;;;;;;;14.03;100.00;102341.63;5061500;28;20056;-62
2023/10/05 08:32:16;;;;;;;21.00;12.77;;;;;;;14.08;100.00;102344.34;5064925;28;20060;-62
2023/10/05 08:34:44;;;;;;;21.55;12.20;;;;;;;14.20;100.00;102344.78;5069040;28;20071;-62
2023/10/05 08:37:11;;;;;;;21.73;12.70;;;;;;;14.30;100.00;102351.38;5063717;28;20721;-62
2023/10/05 08:39:37;;;;;;;20.38;12.48;;;;;;;14.41;100.00;102354.84;5061879;28;20108;-62
2023/10/05 08:42:06;;;;;;;21.90;12.43;;;;;;;14.50;100.00;102355.88;5061082;28;20076;-62
2023/10/05 08:44:36;;;;;;;20.70;12.10;;;;;;;14.60;100.00;102349.34;5070384;28;20032;-62
2023/10/05 08:47:05;;;;;;;21.23;12.27;;;;;;;14.69;100.00;102350.41;5072040;28;20032;-64
2023/10/05 08:49:33;;;;;;;21.75;12.45;;;;;;;14.76;100.00;102355.59;5071878;28;20472;-63
2023/10/05 08:51:59;;;;;;;20.30;12.10;;;;;;;14.82;100.00;102359.97;5071889;28;20024;-63
2023/10/05 08:54:28;;;;;;;23.15;12.20;;;;;;;14.84;100.00;102362.47;5070617;28;20029;-63
2023/10/05 08:56:57;;;;;;;23.27;12.60;;;;;;;14.84;100.00;102368.03;5065691;28;20045;-62
2023/10/05 08:59:26;;;;;;;20.63;12.05;;;;;;;14.85;100.00;102375.25;5057591;28;20152;-62
2023/10/05 09:01:53;;;;;;;22.25;12.25;;;;;;;14.82;100.00;102369.19;5060499;28;20036;-64
2023/10/05 09:06:52;;;;;;;21.17;12.55;;;;;;;14.91;100.00;102368.53;5051786;28;20040;-62
2023/10/05 09:09:37;;;;;;;21.77;12.40;;;;;;;14.89;100.00;102379.94;5066383;28;20033;-62
2023/10/05 09:12:32;;;;;;;20.67;11.88;;;;;;;14.94;100.00;102388.25;5064536;28;20530;-62
2023/10/05 09:15:28;;;;;;;20.95;12.35;;;;;;;14.97;100.00;102393.22;5062121;28;20086;-62
2023/10/05 09:20:33;;;;;;;20.73;12.48;;;;;;;14.91;100.00;102413.09;5051595;28;20433;-61
2023/10/05 09:23:04;;;;;;;23.25;12.40;;;;;;;14.94;100.00;102418.06;5052195;28;20130;-62
2023/10/05 09:25:37;;;;;;;22.30;12.05;;;;;;;14.92;100.00;102421.16;5052516;28;20025;-62
2023/10/05 09:28:12;;;;;;;21.52;12.55;;;;;;;14.94;100.00;102416.13;5052055;28;20539;-63
2023/10/05 09:30:55;;;;;;;21.17;12.30;;;;;;;15.00;100.00;102428.03;5052099;28;20037;-63
2023/10/05 09:33:22;;;;;;;21.98;12.38;;;;;;;15.04;100.00;102419.91;5052111;28;20035;-63
2023/10/05 09:35:47;;;;;;;19.75;12.40;;;;;;;15.04;100.00;102426.28;5033782;28;20029;-62
2023/10/05 09:38:21;;;;;;;20.77;12.75;;;;;;;15.04;100.00;102420.72;5052025;28;20032;-63
2023/10/05 09:40:47;;;;;;;23.63;13.60;;;;;;;15.04;100.00;102428.25;5051722;28;20029;-63
2023/10/05 09:43:18;;;;;;;20.40;12.20;;;;;;;15.06;100.00;102421.25;5051888;28;20102;-63
2023/10/05 09:45:45;;;;;;;21.15;12.07;;;;;;;15.08;100.00;102413.44;5051842;28;20128;-63
2023/10/05 09:48:13;;;;;;;22.15;12.90;;;;;;;15.16;100.00;102414.69;5051656;28;20484;-63
2023/10/05 09:50:38;;;;;;;23.65;12.90;;;;;;;15.20;100.00;102404.63;5051625;28;20025;-63
2023/10/05 09:53:06;;;;;;;23.58;12.98;;;;;;;15.25;100.00;102401.78;5051687;28;20025;-63
2023/10/05 09:55:33;;;;;;;21.17;12.90;;;;;;;15.31;100.00;102407.28;5061602;28;20131;-62
2023/10/05 09:58:05;;;;;;;21.23;12.50;;;;;;;15.34;100.00;102407.50;5052381;28;20531;-62
2023/10/05 10:03:06;;;;;;;20.55;12.05;;;;;;;15.31;100.00;102413.66;5062009;28;20044;-63
2023/10/05 10:05:42;;;;;;;21.70;11.95;;;;;;;15.37;100.00;102406.91;5058972;28;20476;-64
2023/10/05 10:08:12;;;;;;;23.02;12.07;;;;;;;15.41;100.00;102421.06;5054367;28;20111;-63
2023/10/05 10:10:43;;;;;;;20.85;12.50;;;;;;;15.46;100.00;102420.16;5064618;28;20472;-63
2023/10/05 10:13:11;;;;;;;23.38;12.68;;;;;;;15.49;100.00;102414.81;5070241;28;20036;-64
2023/10/05 10:15:45;;;;;;;20.30;12.85;;;;;;;15.58;100.00;102415.78;5070029;28;20035;-64
2023/10/05 10:18:16;;;;;;;21.52;12.35;;;;;;;15.63;100.00;102408.50;5070324;28;20036;-63
2023/10/05 10:20:45;;;;;;;23.88;12.60;;;;;;;15.75;100.00;102415.25;5069941;28;20036;-63
2023/10/05 10:23:18;;;;;;;20.67;12.32;;;;;;;15.86;100.00;102415.13;5069820;28;20116;-63
2023/10/05 10:25:45;;;;;;;20.40;11.93;;;;;;;15.90;100.00;102413.38;5068998;28;20115;-63
2023/10/05 10:28:17;;;;;;;21.23;12.25;;;;;;;15.93;100.00;102411.94;5069348;28;20132;-63
2023/10/05 10:30:48;;;;;;;23.17;12.60;;;;;;;16.06;100.00;102411.16;5068776;28;20120;-64
2023/10/05 10:33:42;;;;;;;23.05;12.40;;;;;;;16.14;100.00;102418.00;5068819;28;20437;-63
2023/10/05 10:36:18;;;;;;;21.67;12.50;;;;;;;16.12;100.00;102409.94;5058558;28;20036;-63
2023/10/05 10:38:53;;;;;;;20.42;12.20;;;;;;;16.07;100.00;102418.41;5069345;28;20029;-63
2023/10/05 10:41:21;;;;;;;22.42;12.15;;;;;;;16.13;100.00;102411.59;5066539;28;20048;-64
2023/10/05 10:43:52;;;;;;;20.83;12.40;;;;;;;16.17;100.00;102409.84;5067674;28;20488;-63
2023/10/05 10:46:30;;;;;;;20.95;12.10;;;;;;;16.21;100.00;102416.47;5064077;28;20464;-64
2023/10/05 10:49:00;;;;;;;21.17;12.20;;;;;;;16.27;99.92;102413.59;5049756;28;20461;-63
2023/10/05 10:51:31;;;;;;;21.42;12.35;;;;;;;16.37;100.00;102410.63;5045799;28;20161;-64
2023/10/05 10:53:59;;;;;;;21.25;12.32;;;;;;;16.48;99.33;102406.47;5069844;28;20521;-64
2023/10/05 10:56:30;;;;;;;21.48;13.10;;;;;;;16.52;98.25;102401.94;5051579;28;20111;-63
2023/10/05 10:58:56;;;;;;;19.67;12.00;;;;;;;16.59;98.06;102411.88;5054582;28;20140;-64
2023/10/05 11:01:29;;;;;;;20.38;12.18;;;;;;;16.58;97.46;102404.66;5045602;28;20557;-63
2023/10/05 11:04:00;;;;;;;21.00;12.30;;;;;;;16.68;99.11;102396.88;5068327;28;20064;-63
2023/10/05 11:06:28;;;;;;;21.85;12.25;;;;;;;16.86;98.44;102399.06;5057236;28;20063;-63
2023/10/05 11:08:59;;;;;;;20.35;12.50;;;;;;;16.97;97.16;102400.50;5054437;28;20083;-64
2023/10/05 11:11:25;;;;;;;21.48;12.90;;;;;;;16.99;95.98;102396.28;5049477;28;20032;-63
2023/10/05 11:13:56;;;;;;;22.27;12.75;;;;;;;17.04;96.05;102397.31;5058623;28;20033;-64
2023/10/05 11:16:34;;;;;;;22.58;12.65;;;;;;;17.12;95.93;102389.00;5049503;28;20489;-63
2023/10/05 11:19:03;;;;;;;22.55;12.93;;;;;;;17.20;94.46;102395.81;5058039;28;20108;-64
2023/10/05 11:21:39;;;;;;;21.88;12.65;;;;;;;17.31;94.13;102388.84;5065793;28;20459;-63
2023/10/05 11:24:08;;;;;;;19.95;12.75;;;;;;;17.42;94.43;102388.63;5055933;28;20032;-64